createdAt,value
2017-08-01T00:00:13.334Z,67.82
2017-08-01T00:01:23.838Z,68.49
2017-08-01T00:02:34.327Z,68.78
2017-08-01T00:03:45.092Z,68.1
2017-08-01T00:04:55.574Z,68.68
2017-08-01T00:06:06.035Z,68.68
2017-08-01T00:07:16.781Z,68.68
2017-08-01T00:08:27.072Z,68.68
2017-08-01T00:09:37.942Z,68.68
2017-08-01T00:10:48.397Z,68.78
2017-08-01T00:11:58.642Z,68.49
2017-08-01T00:13:09.134Z,68.59
2017-08-01T00:14:19.670Z,68.88
2017-08-01T00:15:30.400Z,68.98
2017-08-01T00:16:40.908Z,69.04
2017-08-01T00:17:51.118Z,69.13
2017-08-01T00:19:01.707Z,69.13
2017-08-01T00:20:11.781Z,68.84
2017-08-01T00:21:21.888Z,68.94
2017-08-01T00:22:32.064Z,68.65
2017-08-01T00:23:42.520Z,68.65
2017-08-01T00:24:52.713Z,69.04
2017-08-01T00:26:03.251Z,68.46
2017-08-01T00:27:13.979Z,68.36
2017-08-01T00:28:24.556Z,68.17
2017-08-01T00:29:35.030Z,68.26
2017-08-01T00:30:45.583Z,68.17
2017-08-01T00:31:56.038Z,68.46
2017-08-01T00:33:06.751Z,68.26
2017-08-01T00:34:17.228Z,68.17
2017-08-01T00:35:27.731Z,68.07
2017-08-01T00:36:38.419Z,67.97
2017-08-01T00:37:48.928Z,67.78
2017-08-01T00:38:59.723Z,68.07
2017-08-01T00:40:10.313Z,67.49
2017-08-01T00:41:20.969Z,67.2
2017-08-01T00:42:31.424Z,66.63
2017-08-01T00:43:41.585Z,67.11
2017-08-01T00:44:52.329Z,67.78
2017-08-01T00:46:02.865Z,67.2
2017-08-01T00:47:13.340Z,66.91
2017-08-01T00:48:23.806Z,66.88
2017-08-01T00:49:34.334Z,67.07
2017-08-01T00:50:45.051Z,67.17
2017-08-01T00:51:55.588Z,66.97
2017-08-01T00:53:05.841Z,66.69
2017-08-01T00:54:16.318Z,66.4
2017-08-01T00:55:26.781Z,66.59
2017-08-01T00:56:37.621Z,66.82
2017-08-01T00:57:48.083Z,66.63
2017-08-01T00:58:58.694Z,66.4
2017-08-01T01:00:09.153Z,66.4
2017-08-01T01:01:19.674Z,66.63
2017-08-01T01:02:30.441Z,66.11
2017-08-01T01:03:40.986Z,66.59
2017-08-01T01:04:51.462Z,66.49
2017-08-01T01:06:02.234Z,67.75
2017-08-01T01:07:12.695Z,66.88
2017-08-01T01:08:23.437Z,66.88
2017-08-01T01:09:33.902Z,67.65
2017-08-01T01:10:44.365Z,68.13
2017-08-01T01:11:54.923Z,68.52
2017-08-01T01:13:05.448Z,69
2017-08-01T01:14:16.413Z,69.39
2017-08-01T01:15:26.882Z,69.68
2017-08-01T01:16:37.575Z,69.97
2017-08-01T01:17:48.108Z,70.06
2017-08-01T01:18:58.618Z,69.39
2017-08-01T01:20:09.358Z,69.2
2017-08-01T01:21:19.094Z,69.29
2017-08-01T01:22:29.588Z,70.26
2017-08-01T01:23:40.070Z,69.97
2017-08-01T01:24:50.581Z,70.03
2017-08-01T01:26:00.868Z,70.13
2017-08-01T01:27:11.373Z,70.22
2017-08-01T01:28:21.997Z,70.32
2017-08-01T01:29:32.458Z,69.93
2017-08-01T01:30:43.041Z,70.03
2017-08-01T01:31:53.912Z,70.42
2017-08-01T01:33:04.378Z,70.22
2017-08-01T01:34:14.857Z,70.22
2017-08-01T01:35:25.335Z,70.51
2017-08-01T01:36:35.806Z,70.51
2017-08-01T01:37:46.575Z,70.42
2017-08-01T01:38:57.039Z,70.32
2017-08-01T01:40:07.559Z,70.51
2017-08-01T01:41:18.039Z,70.7
2017-08-01T01:42:28.311Z,70.8
2017-08-01T01:43:39.029Z,70.22
2017-08-01T01:44:49.608Z,69.84
2017-08-01T01:46:00.164Z,70.03
2017-08-01T01:47:10.637Z,69.93
2017-08-01T01:48:21.184Z,70.32
2017-08-01T01:49:31.935Z,70.28
2017-08-01T01:50:42.382Z,70.57
2017-08-01T01:51:52.844Z,70.76
2017-08-01T01:53:03.323Z,70.96
2017-08-01T01:54:13.805Z,71.25
2017-08-01T01:55:24.529Z,71.92
2017-08-01T01:56:35.175Z,71.54
2017-08-01T01:57:45.693Z,71.15
2017-08-01T01:58:56.182Z,71.34
2017-08-01T02:00:06.752Z,70.76
2017-08-01T02:01:17.190Z,71.64
2017-08-01T02:02:27.344Z,71.54
2017-08-01T02:03:37.830Z,71.83
2017-08-01T02:04:48.333Z,72.12
2017-08-01T02:05:58.489Z,71.64
2017-08-01T02:07:09.236Z,71.64
2017-08-01T02:08:19.731Z,71.44
2017-08-01T02:09:30.239Z,71.73
2017-08-01T02:10:40.292Z,72.18
2017-08-01T02:11:50.801Z,71.89
2017-08-01T02:13:01.550Z,71.7
2017-08-01T02:14:12.022Z,72.89
2017-08-01T02:15:22.611Z,73.72
2017-08-01T02:16:33.080Z,73.85
2017-08-01T02:17:43.604Z,73.66
2017-08-01T02:18:54.570Z,73.85
2017-08-01T02:20:04.746Z,73.08
2017-08-01T02:21:15.219Z,73.08
2017-08-01T02:22:25.675Z,72.6
2017-08-01T02:23:35.463Z,72.79
2017-08-01T02:24:46.316Z,72.12
2017-08-01T02:25:56.791Z,72.41
2017-08-01T02:27:07.305Z,72.31
2017-08-01T02:28:17.834Z,72.02
2017-08-01T02:29:28.293Z,72.18
2017-08-01T02:30:39.035Z,72.08
2017-08-01T02:31:49.560Z,72.69
2017-08-01T02:33:00.109Z,72.99
2017-08-01T02:34:10.593Z,72.41
2017-08-01T02:35:21.059Z,72.6
2017-08-01T02:36:31.784Z,72.89
2017-08-01T02:37:42.241Z,72.69
2017-08-01T02:38:52.795Z,73.18
2017-08-01T02:40:03.347Z,73.08
2017-08-01T02:41:13.828Z,73.75
2017-08-01T02:42:24.534Z,73.75
2017-08-01T02:43:35.014Z,74.43
2017-08-01T02:44:45.483Z,74.62
2017-08-01T02:45:55.946Z,74.72
2017-08-01T02:47:06.449Z,74.43
2017-08-01T02:48:17.206Z,74.52
2017-08-01T02:49:27.815Z,73.95
2017-08-01T02:50:37.980Z,73.66
2017-08-01T02:51:48.651Z,74.14
2017-08-01T02:52:58.805Z,74.14
2017-08-01T02:54:09.577Z,74.3
2017-08-01T02:55:20.104Z,75.26
2017-08-01T02:56:30.555Z,75.45
2017-08-01T02:57:41.041Z,76.03
2017-08-01T02:58:51.809Z,75.93
2017-08-01T03:00:02.590Z,75.93
2017-08-01T03:01:13.052Z,76.61
2017-08-01T03:02:23.559Z,76.61
2017-08-01T03:03:33.758Z,77
2017-08-01T03:04:44.234Z,76.42
2017-08-01T03:05:54.953Z,76.51
2017-08-01T03:07:05.509Z,76.23
2017-08-01T03:08:15.968Z,75.93
2017-08-01T03:09:26.451Z,76.51
2017-08-01T03:10:36.901Z,77
2017-08-01T03:11:47.737Z,77.58
2017-08-01T03:12:58.227Z,77.44
2017-08-01T03:14:08.720Z,77.83
2017-08-01T03:15:19.500Z,78.88
2017-08-01T03:16:30.173Z,79.08
2017-08-01T03:17:40.933Z,79.36
2017-08-01T03:18:51.385Z,80.14
2017-08-01T03:20:01.846Z,80.33
2017-08-01T03:21:12.351Z,81.73
2017-08-01T03:22:22.805Z,81.93
2017-08-01T03:23:33.567Z,81.83
2017-08-01T03:24:44.045Z,83.37
2017-08-01T03:25:54.725Z,82.6
2017-08-01T03:27:05.212Z,83.04
2017-08-01T03:28:15.847Z,83.75
2017-08-01T03:29:26.682Z,83.75
2017-08-01T03:30:37.187Z,85.54
2017-08-01T03:31:47.697Z,85.06
2017-08-01T03:32:58.264Z,85.39
2017-08-01T03:34:08.418Z,84.87
2017-08-01T03:35:19.141Z,85.1
2017-08-01T03:36:29.608Z,86.74
2017-08-01T03:37:40.162Z,86.99
2017-08-01T03:38:50.685Z,86.12
2017-08-01T03:40:00.695Z,86.79
2017-08-01T03:41:11.421Z,86.22
2017-08-01T03:42:21.935Z,85.35
2017-08-01T03:43:32.403Z,85.54
2017-08-01T03:44:42.909Z,85.54
2017-08-01T03:45:53.381Z,85.25
2017-08-01T03:47:04.130Z,85.25
2017-08-01T03:48:14.614Z,85.35
2017-08-01T03:49:25.095Z,85.25
2017-08-01T03:50:35.541Z,85.44
2017-08-01T03:51:46.217Z,85
2017-08-01T03:52:56.950Z,85.44
2017-08-01T03:54:07.432Z,85.83
2017-08-01T03:55:17.604Z,85.44
2017-08-01T03:56:28.079Z,85.25
2017-08-01T03:57:38.269Z,85.64
2017-08-01T03:58:49.016Z,85.54
2017-08-01T03:59:59.499Z,86.31
2017-08-01T04:01:09.972Z,85.83
2017-08-01T04:02:20.657Z,85.74
2017-08-01T04:03:31.265Z,85.64
2017-08-01T04:04:41.988Z,86.6
2017-08-01T04:05:52.486Z,86.51
2017-08-01T04:07:02.946Z,86.79
2017-08-01T04:08:13.406Z,86.6
2017-08-01T04:09:23.899Z,87.27
2017-08-01T04:10:34.614Z,87.66
2017-08-01T04:11:45.087Z,88.1
2017-08-01T04:12:55.607Z,88.19
2017-08-01T04:14:06.334Z,88.39
2017-08-01T04:15:16.794Z,88.87
2017-08-01T04:16:27.510Z,88.96
2017-08-01T04:17:37.968Z,89.15
2017-08-01T04:18:48.484Z,89.64
2017-08-01T04:19:58.968Z,89.5
2017-08-01T04:21:09.677Z,90.31
2017-08-01T04:22:20.146Z,90.36
2017-08-01T04:23:30.601Z,90.26
2017-08-01T04:24:41.196Z,90.36
2017-08-01T04:25:51.708Z,91.13
2017-08-01T04:27:02.205Z,90.65
2017-08-01T04:28:12.994Z,90.94
2017-08-01T04:29:23.487Z,91.71
2017-08-01T04:30:33.632Z,92.29
2017-08-01T04:31:44.100Z,91.71
2017-08-01T04:32:54.675Z,91.71
2017-08-01T04:34:05.373Z,91.52
2017-08-01T04:35:15.818Z,91.8
2017-08-01T04:36:26.345Z,92.29
2017-08-01T04:37:36.835Z,91.99
2017-08-01T04:38:47.340Z,92.57
2017-08-01T04:39:57.754Z,92.57
2017-08-01T04:41:08.224Z,92.19
2017-08-01T04:42:18.690Z,92.76
2017-08-01T04:43:29.143Z,93.63
2017-08-01T04:44:39.854Z,93.63
2017-08-01T04:45:50.582Z,94.06
2017-08-01T04:47:32.877Z,94.26
2017-08-01T04:48:43.025Z,94.35
2017-08-01T04:49:53.488Z,94.73
2017-08-01T04:51:04.272Z,95.03
2017-08-01T04:52:14.757Z,94.83
2017-08-01T04:53:25.198Z,95.03
2017-08-01T04:54:35.789Z,94.73
2017-08-01T04:55:46.316Z,95.31
2017-08-01T04:56:57.119Z,94.73
2017-08-01T04:58:07.620Z,94.83
2017-08-01T04:59:18.146Z,94.83
2017-08-01T05:00:28.615Z,95.17
2017-08-01T05:01:39.081Z,95.4
2017-08-01T05:02:49.568Z,95.5
2017-08-01T05:03:59.738Z,96.13
2017-08-01T05:05:10.223Z,96.51
2017-08-01T05:06:20.692Z,98.05
2017-08-01T05:07:31.345Z,98.82
2017-08-01T05:08:42.076Z,99.11
2017-08-01T05:09:52.557Z,99.49
2017-08-01T05:11:03.028Z,99.68
2017-08-01T05:12:13.508Z,99.01
2017-08-01T05:13:23.974Z,98.53
2017-08-01T05:14:34.806Z,99.01
2017-08-01T05:15:45.268Z,98.14
2017-08-01T05:16:55.866Z,98.24
2017-08-01T05:18:06.366Z,97.76
2017-08-01T05:19:16.884Z,98.05
2017-08-01T05:20:27.653Z,97.76
2017-08-01T05:21:38.164Z,97.28
2017-08-01T05:22:48.867Z,97.47
2017-08-01T05:23:59.352Z,97.19
2017-08-01T05:25:09.870Z,96.32
2017-08-01T05:26:20.839Z,96.7
2017-08-01T05:27:30.967Z,96.22
2017-08-01T05:28:41.437Z,96.22
2017-08-01T05:29:51.929Z,95.75
2017-08-01T05:31:02.451Z,95.65
2017-08-01T05:32:13.181Z,96.03
2017-08-01T05:33:23.813Z,95.6
2017-08-01T05:34:34.378Z,95.6
2017-08-01T05:35:44.827Z,95.12
2017-08-01T05:36:55.408Z,94.92
2017-08-01T05:38:06.108Z,95.12
2017-08-01T05:39:16.616Z,94.54
2017-08-01T05:40:27.089Z,95.02
2017-08-01T05:41:37.566Z,94.64
2017-08-01T05:42:48.097Z,94.4
2017-08-01T05:43:58.828Z,94.59
2017-08-01T05:45:09.281Z,93.72
2017-08-01T05:46:19.772Z,94.2
2017-08-01T05:47:30.277Z,93.72
2017-08-01T05:48:40.760Z,93.72
2017-08-01T05:49:51.439Z,93.43
2017-08-01T05:51:01.967Z,93.91
2017-08-01T05:52:12.433Z,93.43
2017-08-01T05:53:22.908Z,93.05
2017-08-01T05:54:33.348Z,93.53
2017-08-01T05:55:44.191Z,93.43
2017-08-01T05:56:54.669Z,92.95
2017-08-01T05:58:05.220Z,93.62
2017-08-01T05:59:15.694Z,92.95
2017-08-01T06:00:26.236Z,92.9
2017-08-01T06:01:36.977Z,93
2017-08-01T06:02:47.443Z,92.22
2017-08-01T06:03:57.942Z,92.52
2017-08-01T06:05:08.406Z,92.66
2017-08-01T06:06:18.892Z,92.03
2017-08-01T06:07:28.872Z,92.32
2017-08-01T06:08:39.344Z,91.94
2017-08-01T06:09:49.846Z,91.75
2017-08-01T06:11:00.349Z,91.84
2017-08-01T06:12:10.633Z,91.46
2017-08-01T06:13:21.361Z,91.27
2017-08-01T06:14:31.872Z,91.07
2017-08-01T06:15:42.363Z,91.46
2017-08-01T06:16:52.875Z,91.46
2017-08-01T06:18:02.579Z,91.07
2017-08-01T06:19:13.337Z,91.46
2017-08-01T06:20:23.525Z,91.46
2017-08-01T06:21:34.071Z,91.36
2017-08-01T06:22:44.514Z,91.46
2017-08-01T06:23:55.232Z,91.27
2017-08-01T06:25:06.359Z,91.46
2017-08-01T06:26:16.949Z,91.46
2017-08-01T06:27:27.391Z,91.36
2017-08-01T06:28:37.939Z,90.97
2017-08-01T06:29:48.408Z,91.55
2017-08-01T06:30:59.258Z,91.55
2017-08-01T06:32:09.771Z,91.55
2017-08-01T06:33:20.268Z,90.88
2017-08-01T06:34:30.450Z,90.97
2017-08-01T06:35:40.924Z,91.17
2017-08-01T06:36:51.764Z,90.97
2017-08-01T06:38:01.783Z,91.07
2017-08-01T06:39:12.307Z,91.17
2017-08-01T06:40:22.771Z,91.46
2017-08-01T06:41:33.240Z,90.97
2017-08-01T06:42:44.045Z,91.07
2017-08-01T06:43:54.519Z,91.17
2017-08-01T06:45:05.020Z,91.07
2017-08-01T06:46:15.493Z,91.07
2017-08-01T06:47:26.208Z,90.88
2017-08-01T06:48:36.944Z,91.03
2017-08-01T06:49:47.443Z,90.69
2017-08-01T06:50:57.955Z,91.13
2017-08-01T06:52:08.421Z,90.83
2017-08-01T06:53:18.910Z,90.55
2017-08-01T06:54:29.648Z,90.88
2017-08-01T06:55:40.359Z,90.88
2017-08-01T06:56:50.513Z,91.07
2017-08-01T06:58:00.994Z,91.17
2017-08-01T06:59:11.546Z,90.5
2017-08-01T07:00:22.265Z,90.69
2017-08-01T07:01:32.866Z,90.88
2017-08-01T07:02:43.331Z,90.5
2017-08-01T07:03:53.802Z,90.69
2017-08-01T07:05:04.272Z,90.4
2017-08-01T07:06:15.086Z,90.4
2017-08-01T07:07:25.249Z,90.01
2017-08-01T07:08:35.728Z,90.11
2017-08-01T07:09:46.241Z,90.34
2017-08-01T07:10:56.706Z,89.77
2017-08-01T07:12:07.235Z,90.64
2017-08-01T07:13:17.705Z,89.67
2017-08-01T07:14:27.992Z,90.44
2017-08-01T07:15:38.546Z,90.25
2017-08-01T07:16:49.063Z,89.39
2017-08-01T07:17:59.812Z,89.96
2017-08-01T07:19:10.522Z,89.53
2017-08-01T07:20:21.010Z,89.14
2017-08-01T07:21:31.590Z,89.53
2017-08-01T07:22:41.756Z,89.23
2017-08-01T07:23:52.481Z,88.75
2017-08-01T07:25:03.091Z,88.65
2017-08-01T07:26:13.110Z,89.04
2017-08-01T07:27:23.704Z,88.37
2017-08-01T07:28:34.171Z,88.27
2017-08-01T07:29:44.906Z,88.27
2017-08-01T07:30:55.398Z,88.37
2017-08-01T07:32:06.055Z,88.41
2017-08-01T07:33:16.508Z,87.64
2017-08-01T07:34:27.107Z,87.78
2017-08-01T07:35:37.837Z,87.2
2017-08-01T07:36:48.636Z,86.33
2017-08-01T07:37:59.125Z,85.94
2017-08-01T07:39:09.283Z,86.33
2017-08-01T07:40:19.748Z,85.46
2017-08-01T07:41:30.619Z,85.8
2017-08-01T07:42:41.073Z,85.6
2017-08-01T07:43:51.645Z,84.64
2017-08-01T07:45:02.125Z,84.44
2017-08-01T07:46:12.379Z,84.44
2017-08-01T07:47:22.762Z,84.54
2017-08-01T07:48:33.263Z,84.06
2017-08-01T07:49:43.766Z,83.77
2017-08-01T07:50:54.262Z,83.67
2017-08-01T07:52:04.719Z,83.87
2017-08-01T07:53:15.673Z,83.77
2017-08-01T07:54:26.144Z,82.81
2017-08-01T07:55:36.694Z,82.9
2017-08-01T07:56:47.165Z,82.46
2017-08-01T07:57:57.652Z,82.26
2017-08-01T07:59:08.366Z,82.65
2017-08-01T08:00:18.941Z,81.68
2017-08-01T08:01:29.511Z,81.63
2017-08-01T08:02:40.062Z,81.44
2017-08-01T08:03:50.554Z,80.66
2017-08-01T08:05:32.995Z,80.76
2017-08-01T08:06:43.467Z,80.28
2017-08-01T08:07:54.033Z,80.18
2017-08-01T08:09:04.516Z,80.08
2017-08-01T08:10:15.283Z,80.38
2017-08-01T08:11:25.761Z,79.89
2017-08-01T08:12:36.251Z,79.5
2017-08-01T08:13:46.745Z,80.08
2017-08-01T08:14:57.315Z,79.31
2017-08-01T08:16:08.067Z,78.96
2017-08-01T08:17:18.547Z,79.16
2017-08-01T08:18:28.939Z,78.87
2017-08-01T08:19:39.411Z,78.48
2017-08-01T08:20:50.210Z,78.19
2017-08-01T08:22:01.080Z,78.19
2017-08-01T08:23:11.550Z,78.19
2017-08-01T08:24:22.095Z,78.03
2017-08-01T08:25:32.385Z,78.03
2017-08-01T08:26:42.856Z,77.11
2017-08-01T08:27:53.688Z,77.3
2017-08-01T08:29:04.157Z,76.43
2017-08-01T08:30:14.656Z,76.24
2017-08-01T08:31:25.286Z,75.56
2017-08-01T08:32:35.986Z,75.37
2017-08-01T08:33:46.718Z,75.37
2017-08-01T08:34:57.225Z,75.46
2017-08-01T08:36:07.756Z,74.88
2017-08-01T08:37:18.246Z,74.15
2017-08-01T08:38:28.767Z,73.37
2017-08-01T08:39:39.491Z,72.89
2017-08-01T08:40:49.713Z,72.79
2017-08-01T08:42:00.285Z,72.79
2017-08-01T08:43:10.869Z,72.44
2017-08-01T08:44:21.372Z,70.98
2017-08-01T08:45:32.150Z,69.47
2017-08-01T08:46:42.666Z,68.73
2017-08-01T08:47:53.302Z,67.92
2017-08-01T08:49:03.783Z,67.28
2017-08-01T08:50:14.360Z,65.5
2017-08-01T08:51:25.091Z,63.68
2017-08-01T08:52:35.564Z,61.77
2017-08-01T08:53:46.049Z,62.29
2017-08-01T08:54:56.901Z,61.57
2017-08-01T08:56:07.668Z,58.18
2017-08-01T08:57:18.102Z,58.02
2017-08-01T08:58:28.619Z,58.24
2017-08-01T08:59:39.095Z,57.68
2017-08-01T09:00:49.672Z,55.49
2017-08-01T09:01:59.975Z,55.22
2017-08-01T09:03:10.755Z,54.11
2017-08-01T09:04:21.360Z,52.05
2017-08-01T09:05:32.117Z,50.61
2017-08-01T09:06:42.832Z,50.54
2017-08-01T09:07:53.396Z,49.36
2017-08-01T09:09:04.155Z,50.15
2017-08-01T09:10:14.722Z,48.68
2017-08-01T09:11:25.220Z,49.16
2017-08-01T09:12:35.826Z,48.41
2017-08-01T09:13:46.305Z,48.3
2017-08-01T09:14:57.219Z,47.62
2017-08-01T09:16:07.704Z,47.13
2017-08-01T09:17:18.235Z,47.42
2017-08-01T09:18:28.722Z,47.5
2017-08-01T09:19:39.224Z,46.81
2017-08-01T09:20:49.970Z,47.01
2017-08-01T09:22:00.515Z,46.34
2017-08-01T09:23:11.043Z,45.34
2017-08-01T09:24:21.557Z,45.64
2017-08-01T09:25:32.104Z,46.2
2017-08-01T09:26:42.843Z,45.91
2017-08-01T09:27:53.391Z,45.44
2017-08-01T09:29:03.895Z,44.95
2017-08-01T09:30:14.381Z,45.15
2017-08-01T09:31:24.922Z,45.05
2017-08-01T09:32:35.707Z,45.25
2017-08-01T09:33:45.893Z,45.15
2017-08-01T09:34:56.666Z,45.25
2017-08-01T09:36:07.206Z,45.15
2017-08-01T09:37:17.699Z,44.85
2017-08-01T09:38:28.756Z,44.37
2017-08-01T09:39:39.270Z,44.09
2017-08-01T09:40:49.859Z,44.66
2017-08-01T09:42:00.389Z,45.05
2017-08-01T09:43:11.866Z,45.05
2017-08-01T09:44:22.640Z,44.88
2017-08-01T09:45:33.151Z,45.05
2017-08-01T09:46:43.631Z,44.58
2017-08-01T09:47:55.176Z,44.09
2017-08-01T09:49:05.687Z,44.02
2017-08-01T09:50:16.543Z,43.72
2017-08-01T09:51:27.056Z,43.15
2017-08-01T09:52:37.545Z,42.98
2017-08-01T09:53:48.227Z,42.88
2017-08-01T09:54:58.727Z,42.71
2017-08-01T09:56:09.589Z,42.32
2017-08-01T09:57:20.122Z,42.24
2017-08-01T09:58:30.822Z,41.53
2017-08-01T09:59:41.310Z,42.32
2017-08-01T10:00:51.867Z,41.92
2017-08-01T10:02:02.589Z,41.43
2017-08-01T10:03:13.086Z,40.74
2017-08-01T10:04:23.877Z,41.41
2017-08-01T10:05:34.455Z,41.08
2017-08-01T10:06:45.043Z,41.94
2017-08-01T10:07:55.814Z,42.21
2017-08-01T10:09:06.313Z,42.78
2017-08-01T10:10:16.826Z,43.05
2017-08-01T10:11:27.426Z,43.73
2017-08-01T10:12:37.634Z,44.4
2017-08-01T10:13:48.302Z,44.38
2017-08-01T10:14:58.808Z,44.89
2017-08-01T10:16:09.060Z,45.06
2017-08-01T10:17:20.557Z,45.75
2017-08-01T10:18:31.134Z,45.47
2017-08-01T10:19:41.895Z,46.06
2017-08-01T10:20:52.383Z,45.94
2017-08-01T10:22:02.886Z,45.97
2017-08-01T10:23:13.557Z,46.16
2017-08-01T10:24:24.083Z,45.47
2017-08-01T10:25:34.821Z,45.67
2017-08-01T10:26:45.367Z,45.97
2017-08-01T10:27:55.943Z,45.79
2017-08-01T10:29:06.493Z,45.52
2017-08-01T10:30:17.034Z,45.05
2017-08-01T10:31:28.765Z,43.7
2017-08-01T10:34:04.351Z,43.6
2017-08-01T10:35:14.889Z,42.94
2017-08-01T10:36:25.446Z,43.23
2017-08-01T10:37:36.183Z,43.02
2017-08-01T10:38:46.240Z,43.7
2017-08-01T10:39:56.722Z,43.51
2017-08-01T10:41:07.272Z,43.8
2017-08-01T10:42:18.089Z,43.7
2017-08-01T10:43:28.346Z,43.41
2017-08-01T10:44:38.825Z,43.02
2017-08-01T10:45:49.534Z,42.94
2017-08-01T10:46:59.560Z,43.04
2017-08-01T10:48:10.311Z,43.33
2017-08-01T10:49:21.075Z,42.82
2017-08-01T10:50:31.783Z,43.12
2017-08-01T10:51:42.346Z,43.09
2017-08-01T10:52:52.927Z,43.68
2017-08-01T10:54:03.647Z,43.85
2017-08-01T10:55:13.925Z,44.13
2017-08-01T10:56:24.417Z,44.05
2017-08-01T10:57:34.937Z,44.15
2017-08-01T10:58:45.103Z,44.05
2017-08-01T10:59:55.886Z,44.15
2017-08-01T11:01:06.377Z,44.24
2017-08-01T11:02:16.874Z,44.64
2017-08-01T11:03:27.492Z,44.64
2017-08-01T11:04:37.965Z,44.34
2017-08-01T11:05:48.788Z,44.07
2017-08-01T11:06:59.334Z,43.9
2017-08-01T11:08:09.919Z,43.82
2017-08-01T11:09:20.508Z,43.33
2017-08-01T11:10:31.021Z,42.96
2017-08-01T11:11:41.443Z,43.05
2017-08-01T11:12:52.124Z,43.26
2017-08-01T11:14:02.873Z,42.58
2017-08-01T11:15:13.383Z,41.41
2017-08-01T11:16:23.877Z,42.58
2017-08-01T11:17:35.245Z,42.37
2017-08-01T11:18:45.768Z,42.57
2017-08-01T11:19:56.331Z,42.47
2017-08-01T11:21:06.928Z,42.74
2017-08-01T11:22:17.438Z,43.13
2017-08-01T11:23:28.232Z,43.12
2017-08-01T11:24:38.835Z,43.6
2017-08-01T11:25:49.465Z,43.68
2017-08-01T11:27:00.026Z,44.73
2017-08-01T11:28:10.537Z,45.1
2017-08-01T11:29:21.431Z,45.3
2017-08-01T11:30:31.970Z,45.84
2017-08-01T11:31:42.138Z,46.8
2017-08-01T11:32:52.730Z,47.36
2017-08-01T11:34:03.306Z,47.85
2017-08-01T11:35:14.061Z,48.05
2017-08-01T11:36:24.596Z,48.73
2017-08-01T11:37:35.128Z,49.29
2017-08-01T11:38:45.829Z,48.9
2017-08-01T11:39:56.360Z,49.37
2017-08-01T11:41:07.323Z,49.37
2017-08-01T11:42:17.917Z,49.46
2017-08-01T11:43:28.406Z,50.14
2017-08-01T11:44:38.975Z,49.76
2017-08-01T11:45:49.486Z,49.76
2017-08-01T11:47:00.199Z,49.93
2017-08-01T11:48:10.740Z,49.93
2017-08-01T11:49:21.237Z,49.83
2017-08-01T11:50:31.823Z,50.12
2017-08-01T11:51:42.307Z,50.19
2017-08-01T11:52:53.079Z,50.38
2017-08-01T11:54:03.645Z,50.68
2017-08-01T11:55:14.215Z,51.65
2017-08-01T11:56:24.715Z,51.53
2017-08-01T11:57:35.313Z,51.63
2017-08-01T11:58:46.127Z,51.63
2017-08-01T11:59:56.685Z,51.73
2017-08-01T12:01:07.173Z,52.38
2017-08-01T12:02:17.762Z,52.87
2017-08-01T12:03:28.284Z,53.06
2017-08-01T12:04:39.016Z,52.94
2017-08-01T12:05:49.270Z,53.14
2017-08-01T12:06:59.895Z,52.84
2017-08-01T12:08:10.185Z,52.84
2017-08-01T12:09:20.703Z,53.04
2017-08-01T12:10:31.545Z,53.16
2017-08-01T12:11:41.739Z,53.65
2017-08-01T12:12:52.228Z,53.16
2017-08-01T12:14:02.732Z,53.26
2017-08-01T12:15:13.220Z,53.06
2017-08-01T12:16:23.656Z,53.06
2017-08-01T12:17:33.718Z,53.16
2017-08-01T12:18:44.200Z,52.97
2017-08-01T12:19:54.729Z,52.99
2017-08-01T12:21:05.240Z,52.87
2017-08-01T12:22:16.025Z,52.87
2017-08-01T12:23:26.390Z,52.97
2017-08-01T12:24:37.110Z,52.97
2017-08-01T12:25:47.662Z,52.99
2017-08-01T12:26:58.164Z,52.6
2017-08-01T12:28:09.098Z,52.6
2017-08-01T12:29:19.607Z,52.14
2017-08-01T12:30:30.128Z,52.14
2017-08-01T12:31:40.804Z,51.65
2017-08-01T12:32:51.293Z,51.87
2017-08-01T12:34:02.258Z,51.26
2017-08-01T12:35:12.780Z,50.9
2017-08-01T12:36:23.411Z,51.26
2017-08-01T12:37:33.901Z,51.65
2017-08-01T12:38:44.377Z,51.17
2017-08-01T12:39:55.218Z,51.24
2017-08-01T12:41:05.401Z,50.85
2017-08-01T12:42:15.601Z,51.24
2017-08-01T12:43:26.155Z,51.73
2017-08-01T12:44:36.769Z,51.34
2017-08-01T12:45:47.079Z,51.7
2017-08-01T12:46:57.312Z,51.24
2017-08-01T12:48:07.840Z,51.12
2017-08-01T12:49:18.320Z,51.7
2017-08-01T12:50:28.915Z,51.7
2017-08-01T12:51:39.697Z,51.7
2017-08-01T12:52:49.994Z,51.97
2017-08-01T12:54:00.513Z,51.97
2017-08-01T12:55:11.038Z,52.16
2017-08-01T12:56:21.525Z,52.16
2017-08-01T12:57:32.313Z,52.19
2017-08-01T12:58:42.829Z,52.19
2017-08-01T12:59:53.356Z,52.19
2017-08-01T13:01:03.875Z,52.16
2017-08-01T13:02:14.390Z,51.67
2017-08-01T13:03:24.793Z,52.26
2017-08-01T13:04:35.398Z,51.99
2017-08-01T13:05:45.891Z,51.9
2017-08-01T13:06:56.559Z,51.8
2017-08-01T13:08:07.061Z,51.41
2017-08-01T13:09:17.800Z,51.73
2017-08-01T13:10:28.365Z,51.61
2017-08-01T13:11:38.871Z,51.04
2017-08-01T13:12:49.093Z,51.14
2017-08-01T13:13:59.742Z,51.14
2017-08-01T13:15:10.607Z,51.24
2017-08-01T13:16:21.086Z,50.85
2017-08-01T13:17:31.632Z,50.95
2017-08-01T13:18:42.172Z,50.95
2017-08-01T13:19:52.405Z,51.24
2017-08-01T13:21:03.256Z,51.14
2017-08-01T13:22:13.754Z,50.85
2017-08-01T13:23:24.262Z,50.85
2017-08-01T13:24:34.460Z,50.65
2017-08-01T13:25:44.971Z,50.29
2017-08-01T13:26:55.847Z,50.36
2017-08-01T13:28:06.329Z,50.48
2017-08-01T13:29:16.918Z,50.48
2017-08-01T13:30:27.412Z,50.09
2017-08-01T13:31:37.961Z,50.85
2017-08-01T13:32:48.859Z,50.75
2017-08-01T13:33:59.363Z,50.95
2017-08-01T13:35:09.894Z,50.95
2017-08-01T13:36:20.388Z,50.65
2017-08-01T13:37:30.912Z,50.92
2017-08-01T13:38:41.696Z,50.63
2017-08-01T13:39:52.238Z,50.73
2017-08-01T13:41:02.409Z,50.92
2017-08-01T13:42:12.904Z,50.92
2017-08-01T13:43:23.094Z,50.82
2017-08-01T13:44:33.817Z,50.24
2017-08-01T13:45:44.305Z,50.24
2017-08-01T13:46:54.529Z,49.78
2017-08-01T13:48:05.032Z,49.68
2017-08-01T13:49:15.238Z,49.68
2017-08-01T13:50:25.821Z,49
2017-08-01T13:51:36.553Z,48.22
2017-08-01T13:52:47.055Z,48.9
2017-08-01T13:53:57.575Z,49.19
2017-08-01T13:55:08.122Z,49
2017-08-01T13:56:18.888Z,49.1
2017-08-01T13:57:29.431Z,49.29
2017-08-01T13:58:39.938Z,48.9
2017-08-01T13:59:50.443Z,48.61
2017-08-01T14:01:00.393Z,48.8
2017-08-01T14:02:11.269Z,49.19
2017-08-01T14:03:21.841Z,48.9
2017-08-01T14:04:32.381Z,48.97
2017-08-01T14:05:42.885Z,49.56
2017-08-01T14:06:53.472Z,49.56
2017-08-01T14:08:04.336Z,49.27
2017-08-01T14:09:15.126Z,49.46
2017-08-01T14:10:25.638Z,49.56
2017-08-01T14:11:36.112Z,49.49
2017-08-01T14:12:46.598Z,49.78
2017-08-01T14:13:57.420Z,49.58
2017-08-01T14:15:07.939Z,49.58
2017-08-01T14:16:18.601Z,49.68
2017-08-01T14:17:28.913Z,49.58
2017-08-01T14:18:39.410Z,49.58
2017-08-01T14:19:50.188Z,49.68
2017-08-01T14:21:00.774Z,49.78
2017-08-01T14:22:11.580Z,49.68
2017-08-01T14:23:22.099Z,49.78
2017-08-01T14:24:32.669Z,50.07
2017-08-01T14:25:43.502Z,50.07
2017-08-01T14:26:54.007Z,49.97
2017-08-01T14:28:04.586Z,49.68
2017-08-01T14:29:15.100Z,49.49
2017-08-01T14:30:25.627Z,49.49
2017-08-01T14:31:36.596Z,49.58
2017-08-01T14:32:47.065Z,49.68
2017-08-01T14:33:57.336Z,49.66
2017-08-01T14:35:07.909Z,49.37
2017-08-01T14:36:18.394Z,49.17
2017-08-01T14:37:29.185Z,49.07
2017-08-01T14:38:39.686Z,48.88
2017-08-01T14:39:50.176Z,48.49
2017-08-01T14:41:00.644Z,48.49
2017-08-01T14:42:11.261Z,48.1
2017-08-01T14:43:22.253Z,47.8
2017-08-01T14:44:32.783Z,47.8
2017-08-01T14:45:43.323Z,47.69
2017-08-01T14:46:54.033Z,48.36
2017-08-01T14:48:04.527Z,48.27
2017-08-01T14:49:15.342Z,48.46
2017-08-01T14:50:25.949Z,48.36
2017-08-01T14:51:36.441Z,48.85
2017-08-01T14:52:47.096Z,49.34
2017-08-01T14:53:57.276Z,48.97
2017-08-01T14:55:08.029Z,48.49
2017-08-01T14:56:18.611Z,48.85
2017-08-01T14:57:29.134Z,48.75
2017-08-01T14:58:39.648Z,48.27
2017-08-01T14:59:49.772Z,49.24
2017-08-01T15:01:00.530Z,48.75
2017-08-01T15:02:11.051Z,49.05
2017-08-01T15:03:21.571Z,48.85
2017-08-01T15:04:32.160Z,48.85
2017-08-01T15:05:42.591Z,49.15
2017-08-01T15:06:53.431Z,49.44
2017-08-01T15:08:03.917Z,49.63
2017-08-01T15:09:14.411Z,49.83
2017-08-01T15:10:24.920Z,49.99
2017-08-01T15:11:35.527Z,50.19
2017-08-01T15:12:46.328Z,49.99
2017-08-01T15:13:57.909Z,50.38